Time;durP1;ratioP1;P1;durP2;ratioP2;P2;SDS_P1;SDS_P2;PMS_P1;PMS_P2;Temp;Humidity;BMP_temperature;BMP_pressure;BME280_temperature;BME280_humidity;BME280_pressure;Samples;Min_cycle;Max_cycle;Signal;HPM_P1;HPM_P2
2023/02/11 00:02:16;;;;;;;34.00;5.75;;;;;;;;;;6147930;23;20522;-68
2023/02/11 00:04:43;;;;;;;38.42;4.70;;;;;;;;;;6149199;23;20045;-67
2023/02/11 00:07:10;;;;;;;49.13;7.43;;;;;;;;;;6148425;23;20057;-53
2023/02/11 00:09:44;;;;;;;42.22;5.35;;;;;;;;;;6149518;23;20368;-68
2023/02/11 00:12:11;;;;;;;44.42;6.28;;;;;;;;;;6148464;23;20084;-67
2023/02/11 00:14:45;;;;;;;37.88;5.18;;;;;;;;;;6147755;23;20029;-67
2023/02/11 00:17:25;;;;;;;39.50;5.18;;;;;;;;;;6148159;23;20112;-67
2023/02/11 00:19:59;;;;;;;46.47;6.47;;;;;;;;;;6149426;23;20363;-67
2023/02/11 00:22:34;;;;;;;43.05;5.18;;;;;;;;;;6149112;23;20080;-67
2023/02/11 00:25:08;;;;;;;31.65;5.97;;;;;;;;;;6148852;23;20028;-58
2023/02/11 00:27:36;;;;;;;30.30;5.28;;;;;;;;;;6148219;23;20025;-67
2023/02/11 00:30:04;;;;;;;42.65;6.35;;;;;;;;;;6148815;23;20018;-55
2023/02/11 00:32:38;;;;;;;40.20;4.85;;;;;;;;;;6146274;23;20869;-57
2023/02/11 00:35:05;;;;;;;34.63;5.10;;;;;;;;;;6148778;23;20259;-57
2023/02/11 00:37:39;;;;;;;44.78;5.28;;;;;;;;;;6148920;23;20028;-54
2023/02/11 00:40:06;;;;;;;36.50;5.40;;;;;;;;;;6148892;23;20463;-50
2023/02/11 00:42:37;;;;;;;34.70;5.13;;;;;;;;;;6148720;23;20053;-55
2023/02/11 00:45:10;;;;;;;35.63;6.07;;;;;;;;;;6148982;23;20067;-68
2023/02/11 00:47:37;;;;;;;29.15;5.18;;;;;;;;;;6148326;23;20073;-48
2023/02/11 00:50:11;;;;;;;37.83;4.93;;;;;;;;;;6148661;23;20129;-49
2023/02/11 00:52:38;;;;;;;36.40;4.80;;;;;;;;;;6148213;23;20045;-48
2023/02/11 00:55:06;;;;;;;32.03;4.75;;;;;;;;;;6148058;23;20079;-48
2023/02/11 00:57:40;;;;;;;31.33;4.70;;;;;;;;;;6149085;23;20018;-53
2023/02/11 01:00:09;;;;;;;15.65;3.88;;;;;;;;;;6147819;23;20025;-51
2023/02/11 01:02:42;;;;;;;36.30;4.97;;;;;;;;;;6147147;23;20029;-61
2023/02/11 01:05:09;;;;;;;42.95;5.72;;;;;;;;;;6147807;23;20045;-53
2023/02/11 01:07:37;;;;;;;22.90;4.03;;;;;;;;;;6149096;23;20021;-52
2023/02/11 01:10:10;;;;;;;41.15;6.18;;;;;;;;;;6148554;23;20091;-52
2023/02/11 01:12:37;;;;;;;37.22;6.35;;;;;;;;;;6148319;23;20049;-56
2023/02/11 01:15:13;;;;;;;36.33;5.60;;;;;;;;;;6147524;23;20104;-52
2023/02/11 01:17:47;;;;;;;31.15;4.75;;;;;;;;;;6147368;23;20096;-50
2023/02/11 01:20:22;;;;;;;36.80;5.60;;;;;;;;;;6149014;23;20108;-51
2023/02/11 01:22:56;;;;;;;36.80;5.60;;;;;;;;;;6148572;23;20028;-67
2023/02/11 01:25:30;;;;;;;35.85;4.88;;;;;;;;;;6147676;23;20017;-60
2023/02/11 01:27:58;;;;;;;41.88;6.63;;;;;;;;;;6149205;23;20057;-60
2023/02/11 01:30:25;;;;;;;47.05;6.05;;;;;;;;;;6149532;23;20340;-61
2023/02/11 01:32:59;;;;;;;42.67;5.40;;;;;;;;;;6146243;23;20485;-60
2023/02/11 01:35:26;;;;;;;36.42;6.03;;;;;;;;;;6147543;23;20101;-61
2023/02/11 01:38:00;;;;;;;29.85;5.35;;;;;;;;;;6148256;23;20409;-60
2023/02/11 01:40:27;;;;;;;34.05;4.43;;;;;;;;;;6147696;23;20430;-54
2023/02/11 01:43:01;;;;;;;40.47;6.43;;;;;;;;;;6147784;23;20408;-59
2023/02/11 01:45:45;;;;;;;38.47;5.13;;;;;;;;;;6148858;23;20442;-49
2023/02/11 01:48:27;;;;;;;34.33;5.20;;;;;;;;;;6146759;23;20028;-49
2023/02/11 01:50:57;;;;;;;32.20;4.70;;;;;;;;;;6146520;23;20584;-51
2023/02/11 01:59:14;;;;;;;27.58;4.60;;;;;;;;;;6147823;23;20056;-49
2023/02/11 02:01:43;;;;;;;38.55;5.63;;;;;;;;;;6146434;23;20104;-65
2023/02/11 02:04:11;;;;;;;31.63;5.50;;;;;;;;;;6148124;23;20032;-61
2023/02/11 02:06:48;;;;;;;35.25;5.68;;;;;;;;;;6148574;23;20031;-61
2023/02/11 02:09:19;;;;;;;34.60;4.55;;;;;;;;;;6147585;23;20048;-61
2023/02/11 02:11:53;;;;;;;25.13;4.35;;;;;;;;;;6147109;23;20058;-61
2023/02/11 02:14:20;;;;;;;33.20;4.88;;;;;;;;;;6146828;23;20025;-61
2023/02/11 02:17:01;;;;;;;36.97;5.90;;;;;;;;;;6144301;23;20100;-61
2023/02/11 02:19:52;;;;;;;26.42;4.57;;;;;;;;;;6146108;23;20482;-61
2023/02/11 02:22:57;;;;;;;35.80;5.57;;;;;;;;;;6148173;23;20052;-67
2023/02/11 02:25:47;;;;;;;32.97;4.72;;;;;;;;;;6148137;23;20032;-61
2023/02/11 02:28:24;;;;;;;40.88;6.43;;;;;;;;;;6147830;23;20017;-60
2023/02/11 02:31:27;;;;;;;35.83;5.45;;;;;;;;;;6147219;23;20097;-60
2023/02/11 02:34:13;;;;;;;23.20;4.70;;;;;;;;;;6085580;23;20026;-59
2023/02/11 02:36:47;;;;;;;23.85;4.38;;;;;;;;;;6143004;23;20094;-60
2023/02/11 02:39:23;;;;;;;39.97;5.20;;;;;;;;;;6147730;23;20439;-55
2023/02/11 02:41:51;;;;;;;32.75;5.40;;;;;;;;;;6148469;23;20022;-61
2023/02/11 02:44:19;;;;;;;33.78;5.43;;;;;;;;;;6146414;23;20049;-61
2023/02/11 02:46:53;;;;;;;43.10;6.47;;;;;;;;;;6146994;23;20092;-61
2023/02/11 02:49:20;;;;;;;42.05;5.30;;;;;;;;;;6147232;23;20029;-61
2023/02/11 02:51:54;;;;;;;48.13;6.72;;;;;;;;;;6148521;23;20056;-62
2023/02/11 02:54:24;;;;;;;37.58;5.43;;;;;;;;;;6146475;23;20418;-61
2023/02/11 02:57:06;;;;;;;43.13;5.90;;;;;;;;;;6147852;23;20041;-57
2023/02/11 02:59:51;;;;;;;36.00;5.63;;;;;;;;;;6147503;23;20462;-49
2023/02/11 03:02:46;;;;;;;39.22;5.45;;;;;;;;;;6147000;23;20033;-56
2023/02/11 03:05:17;;;;;;;33.05;6.18;;;;;;;;;;6147056;23;20033;-59
2023/02/11 03:07:57;;;;;;;32.75;5.22;;;;;;;;;;6146579;23;20554;-60
2023/02/11 03:10:30;;;;;;;40.90;5.18;;;;;;;;;;6148341;23;20026;-60
2023/02/11 03:13:05;;;;;;;47.45;5.68;;;;;;;;;;6148203;23;20531;-58
2023/02/11 03:15:34;;;;;;;35.20;4.75;;;;;;;;;;6146195;23;20022;-58
2023/02/11 03:18:02;;;;;;;34.50;5.53;;;;;;;;;;6146756;23;20018;-50
2023/02/11 03:20:38;;;;;;;32.30;5.20;;;;;;;;;;6147048;23;20032;-61
2023/02/11 03:23:10;;;;;;;29.33;4.43;;;;;;;;;;6146782;23;20053;-61
2023/02/11 03:25:47;;;;;;;23.10;4.20;;;;;;;;;;6147003;23;20056;-61
2023/02/11 03:28:18;;;;;;;28.88;4.53;;;;;;;;;;6148738;23;20367;-61
2023/02/11 03:31:25;;;;;;;33.97;5.55;;;;;;;;;;6146506;23;20021;-61
2023/02/11 03:34:09;;;;;;;44.03;5.93;;;;;;;;;;6116661;23;20026;-61
2023/02/11 03:36:46;;;;;;;43.70;5.70;;;;;;;;;;6149114;23;20558;-47
2023/02/11 03:39:22;;;;;;;45.95;5.95;;;;;;;;;;6148406;23;20025;-55
2023/02/11 03:41:49;;;;;;;49.15;5.82;;;;;;;;;;6149282;23;20021;-57
2023/02/11 03:44:16;;;;;;;49.25;6.47;;;;;;;;;;6148864;23;20096;-57
2023/02/11 03:46:51;;;;;;;38.97;4.97;;;;;;;;;;6148937;23;20359;-57
2023/02/11 03:49:20;;;;;;;38.35;5.90;;;;;;;;;;6150133;23;20100;-52
2023/02/11 03:51:55;;;;;;;47.63;7.05;;;;;;;;;;6149796;23;20036;-56
2023/02/11 03:54:27;;;;;;;57.60;6.57;;;;;;;;;;6148970;23;20032;-59
2023/02/11 03:57:01;;;;;;;44.20;5.13;;;;;;;;;;6149987;23;20027;-49
2023/02/11 03:59:29;;;;;;;42.53;6.63;;;;;;;;;;6148482;23;20081;-65
2023/02/11 04:01:58;;;;;;;43.10;6.05;;;;;;;;;;6148618;23;20140;-64
2023/02/11 04:04:32;;;;;;;56.92;6.57;;;;;;;;;;6148558;23;20509;-64
2023/02/11 04:06:59;;;;;;;46.40;6.80;;;;;;;;;;6149450;23;20097;-65
2023/02/11 04:09:35;;;;;;;48.53;7.13;;;;;;;;;;6123793;23;20302;-65
2023/02/11 04:12:02;;;;;;;43.05;6.18;;;;;;;;;;6149199;23;20096;-65
2023/02/11 04:14:29;;;;;;;54.25;6.55;;;;;;;;;;6147923;23;20104;-59
2023/02/11 04:17:10;;;;;;;52.88;6.75;;;;;;;;;;6147878;23;20370;-57
2023/02/11 04:19:44;;;;;;;54.97;8.30;;;;;;;;;;6147751;23;20018;-58
2023/02/11 04:22:17;;;;;;;57.83;8.68;;;;;;;;;;6149868;23;20116;-55
2023/02/11 04:24:44;;;;;;;54.53;7.15;;;;;;;;;;6122822;23;20029;-60
2023/02/11 04:27:11;;;;;;;48.90;6.75;;;;;;;;;;6148976;23;20092;-58
2023/02/11 04:29:45;;;;;;;59.72;8.18;;;;;;;;;;6147515;23;20025;-56
2023/02/11 04:32:12;;;;;;;52.33;6.25;;;;;;;;;;6148945;23;20109;-58
2023/02/11 04:34:47;;;;;;;57.05;8.05;;;;;;;;;;6147823;23;20022;-51
2023/02/11 04:37:14;;;;;;;42.83;6.75;;;;;;;;;;6148781;23;20113;-61
2023/02/11 04:39:41;;;;;;;51.30;6.15;;;;;;;;;;6148107;23;20104;-61
2023/02/11 04:42:15;;;;;;;40.30;6.13;;;;;;;;;;6149640;23;20088;-60
2023/02/11 04:44:42;;;;;;;56.70;5.93;;;;;;;;;;6148224;23;20092;-60
2023/02/11 04:47:16;;;;;;;56.80;7.18;;;;;;;;;;6147135;23;20026;-60
2023/02/11 04:49:43;;;;;;;42.05;5.38;;;;;;;;;;6148767;23;20022;-60
2023/02/11 04:52:10;;;;;;;48.00;6.03;;;;;;;;;;6149588;23;20202;-64
2023/02/11 04:54:44;;;;;;;45.63;6.45;;;;;;;;;;6148526;23;20100;-61
2023/02/11 04:57:11;;;;;;;41.08;6.90;;;;;;;;;;6148558;23;20022;-61
2023/02/11 04:59:45;;;;;;;46.17;6.05;;;;;;;;;;6147182;23;20097;-61
2023/02/11 05:02:12;;;;;;;44.00;5.40;;;;;;;;;;6147186;23;20515;-61
2023/02/11 05:04:40;;;;;;;50.50;7.68;;;;;;;;;;6123175;23;20017;-61
2023/02/11 05:07:13;;;;;;;43.60;5.72;;;;;;;;;;6148813;23;20026;-61
2023/02/11 05:09:40;;;;;;;46.65;6.72;;;;;;;;;;6148756;23;20056;-61
2023/02/11 05:12:14;;;;;;;53.03;7.18;;;;;;;;;;6149113;23;20025;-60
2023/02/11 05:14:41;;;;;;;39.28;5.57;;;;;;;;;;6146488;23;20053;-65
2023/02/11 05:17:08;;;;;;;39.95;5.50;;;;;;;;;;6147416;23;20112;-65
2023/02/11 05:19:49;;;;;;;33.05;4.88;;;;;;;;;;6147276;23;20094;-65
2023/02/11 05:22:16;;;;;;;36.53;5.70;;;;;;;;;;6148032;23;20112;-65
2023/02/11 05:24:50;;;;;;;44.17;5.72;;;;;;;;;;6148400;23;20032;-64
2023/02/11 05:27:17;;;;;;;39.78;5.53;;;;;;;;;;6148323;23;20104;-64
2023/02/11 05:29:45;;;;;;;39.10;5.72;;;;;;;;;;6146312;23;20057;-53
2023/02/11 05:32:18;;;;;;;39.83;6.03;;;;;;;;;;6147786;23;20026;-61
2023/02/11 05:34:45;;;;;;;35.83;5.90;;;;;;;;;;6147036;23;20029;-54
2023/02/11 05:37:19;;;;;;;36.85;5.32;;;;;;;;;;6147254;23;20079;-54
2023/02/11 05:39:46;;;;;;;41.13;5.45;;;;;;;;;;6147545;23;20028;-55
2023/02/11 05:42:20;;;;;;;47.97;6.53;;;;;;;;;;6149056;23;20028;-53
2023/02/11 05:44:54;;;;;;;36.55;4.93;;;;;;;;;;6146503;23;20100;-55
2023/02/11 05:47:22;;;;;;;34.05;4.97;;;;;;;;;;6147719;23;20025;-56
2023/02/11 05:49:49;;;;;;;25.30;5.18;;;;;;;;;;6147865;23;20064;-65
2023/02/11 05:52:23;;;;;;;34.10;4.85;;;;;;;;;;6148868;23;20089;-61
2023/02/11 05:54:50;;;;;;;34.53;5.35;;;;;;;;;;6147706;23;20113;-61
2023/02/11 05:57:24;;;;;;;34.80;4.88;;;;;;;;;;6147978;23;20028;-61
2023/02/11 05:59:51;;;;;;;29.23;4.05;;;;;;;;;;6146818;23;20029;-61
2023/02/11 06:02:18;;;;;;;36.28;5.15;;;;;;;;;;6146923;23;20360;-61
2023/02/11 06:04:52;;;;;;;39.00;4.63;;;;;;;;;;6148193;23;20022;-61
2023/02/11 06:07:19;;;;;;;26.23;3.67;;;;;;;;;;6147934;23;20028;-51
2023/02/11 06:09:53;;;;;;;35.15;5.45;;;;;;;;;;6147800;23;20021;-56
2023/02/11 06:12:20;;;;;;;29.33;4.20;;;;;;;;;;6149052;23;20096;-53
2023/02/11 06:14:47;;;;;;;38.80;4.25;;;;;;;;;;6145493;23;20031;-54
2023/02/11 06:17:35;;;;;;;33.40;4.25;;;;;;;;;;6144549;23;20025;-52
2023/02/11 06:20:03;;;;;;;19.00;3.08;;;;;;;;;;6146948;23;20032;-53
2023/02/11 06:22:37;;;;;;;29.48;3.25;;;;;;;;;;6148003;23;20127;-53
2023/02/11 06:25:04;;;;;;;22.80;3.58;;;;;;;;;;6148053;23;20049;-54
2023/02/11 06:27:32;;;;;;;26.02;3.75;;;;;;;;;;6147323;23;20416;-65
2023/02/11 06:30:06;;;;;;;22.08;3.40;;;;;;;;;;6146129;23;20439;-67
2023/02/11 06:32:33;;;;;;;23.85;3.30;;;;;;;;;;6147209;23;20503;-52
2023/02/11 06:35:11;;;;;;;22.80;3.50;;;;;;;;;;6123856;23;20065;-48
2023/02/11 06:37:38;;;;;;;;;;;;;;;;;;6147571;23;20037;-47
2023/02/11 06:40:12;;;;;;;21.02;3.47;;;;;;;;;;6147374;23;19917;-49
2023/02/11 06:42:39;;;;;;;19.30;3.28;;;;;;;;;;6147268;23;20026;-51
2023/02/11 06:45:12;;;;;;;21.38;3.47;;;;;;;;;;6147835;23;20053;-48
2023/02/11 06:47:45;;;;;;;19.67;3.25;;;;;;;;;;6146962;23;20126;-61
2023/02/11 06:50:13;;;;;;;22.02;3.45;;;;;;;;;;6147075;23;20025;-52
2023/02/11 06:52:47;;;;;;;20.08;3.17;;;;;;;;;;6148386;23;20031;-51
2023/02/11 06:55:14;;;;;;;24.25;3.42;;;;;;;;;;6146607;23;20542;-56
2023/02/11 06:57:41;;;;;;;20.10;3.00;;;;;;;;;;6146972;23;20029;-54
2023/02/11 07:00:15;;;;;;;22.92;3.05;;;;;;;;;;6146156;23;20531;-56
2023/02/11 07:02:42;;;;;;;28.25;3.83;;;;;;;;;;6145611;23;20076;-55
2023/02/11 07:05:16;;;;;;;14.70;3.00;;;;;;;;;;6147057;23;20735;-65
2023/02/11 07:07:44;;;;;;;18.30;3.33;;;;;;;;;;6147950;23;20053;-60
2023/02/11 07:10:11;;;;;;;18.20;2.83;;;;;;;;;;6147816;23;20205;-61
2023/02/11 07:12:44;;;;;;;20.33;3.50;;;;;;;;;;6149414;23;20028;-61
2023/02/11 07:15:11;;;;;;;25.40;2.88;;;;;;;;;;6149060;23;20105;-61
2023/02/11 07:17:58;;;;;;;21.58;2.63;;;;;;;;;;6148442;23;20108;-61
2023/02/11 07:20:32;;;;;;;30.80;2.92;;;;;;;;;;6148761;23;20400;-61
2023/02/11 07:23:06;;;;;;;28.58;3.58;;;;;;;;;;6149924;23;20089;-61
2023/02/11 07:25:34;;;;;;;20.58;3.30;;;;;;;;;;6150235;23;20100;-60
2023/02/11 07:28:02;;;;;;;18.90;3.28;;;;;;;;;;6148523;23;20596;-57
2023/02/11 07:30:36;;;;;;;17.83;2.53;;;;;;;;;;6147312;23;20033;-60
2023/02/11 07:33:03;;;;;;;15.68;2.30;;;;;;;;;;6149319;23;20025;-57
2023/02/11 07:35:50;;;;;;;20.27;2.22;;;;;;;;;;6147516;23;20100;-58
2023/02/11 07:38:17;;;;;;;16.13;3.03;;;;;;;;;;6149513;23;20701;-57
2023/02/11 07:40:51;;;;;;;12.43;2.20;;;;;;;;;;6150225;23;20026;-58
2023/02/11 07:43:18;;;;;;;18.48;2.45;;;;;;;;;;6148971;23;20101;-49
2023/02/11 07:45:45;;;;;;;10.70;2.65;;;;;;;;;;6150621;23;20089;-50
2023/02/11 07:48:19;;;;;;;21.13;2.72;;;;;;;;;;6149489;23;20518;-54
2023/02/11 07:50:46;;;;;;;15.25;2.97;;;;;;;;;;6149203;23;20060;-57
2023/02/11 07:53:21;;;;;;;16.33;2.95;;;;;;;;;;6149866;23;20283;-53
2023/02/11 07:55:48;;;;;;;18.40;3.80;;;;;;;;;;6151286;23;20096;-53
2023/02/11 07:58:15;;;;;;;20.92;3.67;;;;;;;;;;6146460;23;20080;-57
2023/02/11 08:00:49;;;;;;;16.58;2.65;;;;;;;;;;6147089;23;20025;-52
2023/02/11 08:03:16;;;;;;;10.55;2.15;;;;;;;;;;6148496;23;20085;-49
2023/02/11 08:05:50;;;;;;;18.85;2.78;;;;;;;;;;6147478;23;20021;-60
2023/02/11 08:08:18;;;;;;;;;;;;;;;;;;6148814;23;20092;-60
2023/02/11 08:10:45;;;;;;;18.63;2.38;;;;;;;;;;6149900;23;19922;-61
2023/02/11 08:13:18;;;;;;;19.17;2.67;;;;;;;;;;6148701;23;20021;-60
2023/02/11 08:15:46;;;;;;;10.88;1.98;;;;;;;;;;6149733;23;20093;-60
2023/02/11 08:18:26;;;;;;;20.50;2.70;;;;;;;;;;6125044;23;20021;-59
2023/02/11 08:20:53;;;;;;;18.00;2.83;;;;;;;;;;6147931;23;20044;-50
2023/02/11 08:23:27;;;;;;;14.10;2.60;;;;;;;;;;6149930;23;20052;-60
2023/02/11 08:25:54;;;;;;;16.17;3.10;;;;;;;;;;6148697;23;20100;-49
2023/02/11 08:28:28;;;;;;;15.45;2.80;;;;;;;;;;6148503;23;20112;-49
2023/02/11 08:30:56;;;;;;;18.13;3.00;;;;;;;;;;6147786;23;20037;-50
2023/02/11 08:33:23;;;;;;;12.73;2.38;;;;;;;;;;6148697;23;20479;-50
2023/02/11 08:35:56;;;;;;;15.52;2.92;;;;;;;;;;6148844;23;20029;-52
2023/02/11 08:38:23;;;;;;;15.20;2.58;;;;;;;;;;6148588;23;20053;-53
2023/02/11 08:40:59;;;;;;;13.60;2.42;;;;;;;;;;6149176;23;20462;-65
2023/02/11 08:43:26;;;;;;;18.52;2.72;;;;;;;;;;6147961;23;20475;-58
2023/02/11 08:46:00;;;;;;;15.73;2.58;;;;;;;;;;6147126;23;20108;-51
2023/02/11 08:48:28;;;;;;;18.58;2.97;;;;;;;;;;6147984;23;20052;-52
2023/02/11 08:50:56;;;;;;;17.48;2.65;;;;;;;;;;6148692;23;20141;-53
2023/02/11 08:53:30;;;;;;;6.82;2.00;;;;;;;;;;6146457;23;20389;-57
2023/02/11 08:55:57;;;;;;;9.07;2.15;;;;;;;;;;6146223;23;20104;-54
2023/02/11 08:58:32;;;;;;;18.05;2.72;;;;;;;;;;6147672;23;20112;-58
2023/02/11 09:00:59;;;;;;;12.35;2.83;;;;;;;;;;6146810;23;20101;-53
2023/02/11 09:03:26;;;;;;;12.20;2.10;;;;;;;;;;6147259;23;20040;-61
2023/02/11 09:06:04;;;;;;;14.15;2.30;;;;;;;;;;6148076;23;20049;-61
2023/02/11 09:08:31;;;;;;;20.08;3.03;;;;;;;;;;6146619;23;20145;-61
2023/02/11 09:11:04;;;;;;;8.48;2.38;;;;;;;;;;6148497;23;20359;-61
2023/02/11 09:13:32;;;;;;;9.10;2.00;;;;;;;;;;6146298;23;20045;-61
2023/02/11 09:16:00;;;;;;;11.07;2.10;;;;;;;;;;6147305;23;20096;-61
2023/02/11 09:18:40;;;;;;;13.45;2.72;;;;;;;;;;6146091;23;20518;-55
2023/02/11 09:21:08;;;;;;;15.57;2.38;;;;;;;;;;6146460;23;20028;-58
2023/02/11 09:23:43;;;;;;;17.98;2.78;;;;;;;;;;6146003;23;20056;-64
2023/02/11 09:26:13;;;;;;;11.13;2.28;;;;;;;;;;6146766;23;20471;-64
2023/02/11 09:28:40;;;;;;;9.93;2.28;;;;;;;;;;6147836;23;20035;-65
2023/02/11 09:31:15;;;;;;;10.60;2.33;;;;;;;;;;6147080;23;20021;-64
2023/02/11 09:33:46;;;;;;;13.75;2.15;;;;;;;;;;6144673;23;20026;-65
2023/02/11 09:36:22;;;;;;;10.60;2.45;;;;;;;;;;6147771;23;20029;-65
2023/02/11 09:38:49;;;;;;;15.82;2.65;;;;;;;;;;6120122;23;20101;-47
2023/02/11 09:41:16;;;;;;;;;;;;;;;;;;6146770;23;20060;-55
2023/02/11 09:43:52;;;;;;;14.20;2.60;;;;;;;;;;6148748;23;19921;-54
2023/02/11 09:46:21;;;;;;;9.98;2.25;;;;;;;;;;6148292;23;20030;-55
2023/02/11 09:48:55;;;;;;;14.02;2.95;;;;;;;;;;6147819;23;20347;-58
2023/02/11 09:51:41;;;;;;;16.83;2.20;;;;;;;;;;6148848;23;20392;-55
2023/02/11 09:54:26;;;;;;;13.63;2.25;;;;;;;;;;6147522;23;20025;-55
2023/02/11 09:56:53;;;;;;;14.25;2.33;;;;;;;;;;6143492;23;20029;-50
2023/02/11 09:59:27;;;;;;;10.30;2.20;;;;;;;;;;6147020;23;20100;-60
2023/02/11 10:01:55;;;;;;;12.73;2.17;;;;;;;;;;6145581;23;20224;-50
2023/02/11 10:04:44;;;;;;;9.70;2.22;;;;;;;;;;6146959;23;20022;-49
2023/02/11 10:07:17;;;;;;;13.98;2.17;;;;;;;;;;6148457;23;20026;-50
2023/02/11 10:10:20;;;;;;;9.23;1.98;;;;;;;;;;6146772;23;20785;-52
2023/02/11 10:13:03;;;;;;;9.80;2.60;;;;;;;;;;6135223;23;20329;-50
2023/02/11 10:15:51;;;;;;;8.05;2.08;;;;;;;;;;6146474;23;20399;-52
2023/02/11 10:21:26;;;;;;;5.00;1.17;;;;;;;;;;6145087;23;20029;-64
2023/02/11 10:24:01;;;;;;;8.40;1.80;;;;;;;;;;6147256;23;20047;-64
2023/02/11 10:26:30;;;;;;;6.00;1.48;;;;;;;;;;6147024;23;20109;-64
2023/02/11 10:29:11;;;;;;;10.90;1.80;;;;;;;;;;6145410;23;20578;-64
2023/02/11 10:31:41;;;;;;;6.47;1.63;;;;;;;;;;6145392;23;20022;-64
2023/02/11 10:34:15;;;;;;;9.52;1.73;;;;;;;;;;6147378;23;20025;-53
2023/02/11 10:36:43;;;;;;;6.65;1.50;;;;;;;;;;6143971;23;20017;-66
2023/02/11 10:39:19;;;;;;;8.70;1.40;;;;;;;;;;6121766;23;20049;-64
2023/02/11 10:41:48;;;;;;;4.85;1.50;;;;;;;;;;6145469;23;20056;-64
2023/02/11 10:44:29;;;;;;;3.75;1.05;;;;;;;;;;6146660;23;20420;-64
2023/02/11 10:47:08;;;;;;;3.03;1.40;;;;;;;;;;6145832;23;20553;-64
2023/02/11 10:49:40;;;;;;;5.55;1.38;;;;;;;;;;6147047;23;20029;-64
2023/02/11 10:52:19;;;;;;;5.03;1.13;;;;;;;;;;6145979;23;20029;-60
2023/02/11 10:54:59;;;;;;;3.53;0.85;;;;;;;;;;6144649;23;20104;-68
2023/02/11 10:57:34;;;;;;;3.60;1.20;;;;;;;;;;6146315;23;20100;-58
2023/02/11 11:00:20;;;;;;;3.60;1.05;;;;;;;;;;6145529;23;20057;-61
2023/02/11 11:02:56;;;;;;;2.28;0.90;;;;;;;;;;6145132;23;20127;-60
2023/02/11 11:05:28;;;;;;;3.83;1.10;;;;;;;;;;6146264;23;20037;-61
2023/02/11 11:08:03;;;;;;;4.72;1.48;;;;;;;;;;6146885;23;20053;-61
2023/02/11 11:10:36;;;;;;;2.67;1.20;;;;;;;;;;6146895;23;20079;-61
2023/02/11 11:13:29;;;;;;;3.38;1.45;;;;;;;;;;6147553;23;20029;-62
2023/02/11 11:16:09;;;;;;;3.88;1.17;;;;;;;;;;6146900;23;20029;-60
2023/02/11 11:18:53;;;;;;;5.78;1.60;;;;;;;;;;6145065;23;20088;-61
2023/02/11 11:21:36;;;;;;;3.30;1.15;;;;;;;;;;6146629;23;20105;-60
2023/02/11 11:24:17;;;;;;;5.50;1.10;;;;;;;;;;6146321;23;20241;-60
2023/02/11 11:26:46;;;;;;;3.53;1.05;;;;;;;;;;6146066;23;20101;-59
2023/02/11 11:29:33;;;;;;;6.05;1.80;;;;;;;;;;6146973;23;20025;-61
2023/02/11 11:32:05;;;;;;;4.93;1.58;;;;;;;;;;6146361;23;20021;-67
2023/02/11 11:34:40;;;;;;;2.08;1.00;;;;;;;;;;6147045;23;20482;-67
2023/02/11 11:37:19;;;;;;;1.88;1.00;;;;;;;;;;6121018;23;20029;-67
2023/02/11 11:40:21;;;;;;;3.50;1.02;;;;;;;;;;6144774;23;20426;-66
2023/02/11 11:43:02;;;;;;;2.53;0.80;;;;;;;;;;6143508;23;20060;-67
2023/02/11 11:45:36;;;;;;;4.90;0.93;;;;;;;;;;6145300;23;20018;-67
2023/02/11 11:48:03;;;;;;;2.10;0.90;;;;;;;;;;6144162;23;20033;-67
2023/02/11 11:50:46;;;;;;;3.67;1.00;;;;;;;;;;6148377;23;20237;-66
2023/02/11 11:53:33;;;;;;;4.82;1.20;;;;;;;;;;6146526;23;20053;-66
2023/02/11 11:56:11;;;;;;;1.98;0.88;;;;;;;;;;6123039;23;20550;-67
2023/02/11 11:58:38;;;;;;;1.83;0.80;;;;;;;;;;6148162;23;20105;-67
2023/02/11 12:01:33;;;;;;;2.53;1.08;;;;;;;;;;6146771;23;20022;-66
2023/02/11 12:04:30;;;;;;;2.80;1.02;;;;;;;;;;6148362;23;20025;-67
2023/02/11 12:07:13;;;;;;;3.80;1.10;;;;;;;;;;6135146;23;20100;-67
2023/02/11 12:09:52;;;;;;;2.65;1.00;;;;;;;;;;6147822;23;20541;-62
2023/02/11 12:12:43;;;;;;;2.05;0.85;;;;;;;;;;6150033;23;20040;-61
2023/02/11 12:15:22;;;;;;;3.30;1.35;;;;;;;;;;6147909;23;20022;-62
2023/02/11 12:18:15;;;;;;;5.35;1.63;;;;;;;;;;6146911;23;20204;-61
2023/02/11 12:21:01;;;;;;;2.85;1.23;;;;;;;;;;6148806;23;20096;-61
2023/02/11 12:23:44;;;;;;;3.85;0.98;;;;;;;;;;6149439;23;20029;-62
2023/02/11 12:26:12;;;;;;;2.22;1.10;;;;;;;;;;6149452;23;20354;-62
2023/02/11 12:29:01;;;;;;;2.22;1.17;;;;;;;;;;6147595;23;20292;-66
2023/02/11 12:31:47;;;;;;;3.33;1.40;;;;;;;;;;6148069;23;20025;-60
2023/02/11 12:34:39;;;;;;;1.98;1.10;;;;;;;;;;6149183;23;20540;-60
2023/02/11 12:37:18;;;;;;;2.58;1.00;;;;;;;;;;6148586;23;20416;-57
2023/02/11 12:40:15;;;;;;;5.32;1.52;;;;;;;;;;6145892;23;20017;-60
2023/02/11 12:43:15;;;;;;;2.55;0.73;;;;;;;;;;6122062;23;20080;-59
2023/02/11 12:46:14;;;;;;;1.52;1.15;;;;;;;;;;6123689;23;20029;-60
2023/02/11 12:49:00;;;;;;;2.17;1.30;;;;;;;;;;6123014;23;20537;-61
2023/02/11 12:51:36;;;;;;;3.38;0.82;;;;;;;;;;6148363;23;20072;-66
2023/02/11 12:54:09;;;;;;;1.70;0.77;;;;;;;;;;6146379;23;20022;-66
2023/02/11 12:56:46;;;;;;;1.50;0.77;;;;;;;;;;6148099;23;20049;-66
2023/02/11 12:59:34;;;;;;;1.65;0.90;;;;;;;;;;6148706;23;20025;-66
2023/02/11 13:02:30;;;;;;;1.85;0.85;;;;;;;;;;6147027;23;20105;-66
2023/02/11 13:05:01;;;;;;;1.50;0.52;;;;;;;;;;6136456;23;20027;-66
2023/02/11 13:07:40;;;;;;;2.42;0.90;;;;;;;;;;6146748;23;20249;-65
2023/02/11 13:10:14;;;;;;;0.73;0.50;;;;;;;;;;6147496;23;20096;-60
2023/02/11 13:15:35;;;;;;;2.00;0.82;;;;;;;;;;6148227;23;20048;-60
2023/02/11 13:18:11;;;;;;;1.85;1.05;;;;;;;;;;6146997;23;20030;-60
2023/02/11 13:20:55;;;;;;;1.95;0.70;;;;;;;;;;6148410;23;20022;-60
2023/02/11 13:23:46;;;;;;;3.72;1.02;;;;;;;;;;6148137;23;20557;-60
2023/02/11 13:26:14;;;;;;;1.65;0.95;;;;;;;;;;6148967;23;20022;-65
2023/02/11 13:28:56;;;;;;;2.67;0.85;;;;;;;;;;6147894;23;20021;-60
2023/02/11 13:31:26;;;;;;;2.95;1.20;;;;;;;;;;6146919;23;20097;-60
2023/02/11 13:33:59;;;;;;;3.15;1.08;;;;;;;;;;6148020;23;20028;-60
2023/02/11 13:36:34;;;;;;;1.83;0.90;;;;;;;;;;6148297;23;20154;-60
2023/02/11 13:39:02;;;;;;;2.88;1.15;;;;;;;;;;6148696;23;20142;-58
2023/02/11 13:41:38;;;;;;;3.67;1.13;;;;;;;;;;6149012;23;20032;-60
2023/02/11 13:44:08;;;;;;;5.30;0.98;;;;;;;;;;6147498;23;20032;-65
2023/02/11 13:47:02;;;;;;;2.90;1.48;;;;;;;;;;6146063;23;20101;-60
2023/02/11 13:49:31;;;;;;;5.07;1.25;;;;;;;;;;6146159;23;20041;-60
2023/02/11 13:52:05;;;;;;;3.08;1.10;;;;;;;;;;6144211;23;20495;-60
2023/02/11 13:54:35;;;;;;;2.17;1.10;;;;;;;;;;6146775;23;20028;-60
2023/02/11 13:57:20;;;;;;;2.47;0.98;;;;;;;;;;6147250;23;20032;-60
2023/02/11 13:59:47;;;;;;;3.55;1.05;;;;;;;;;;6147547;23;20120;-59
2023/02/11 14:11:07;;;;;;;2.63;1.05;;;;;;;;;;6147038;23;20514;-65
2023/02/11 14:13:46;;;;;;;1.20;0.70;;;;;;;;;;6148059;23;20100;-65
2023/02/11 14:16:15;;;;;;;2.33;1.05;;;;;;;;;;6147288;23;20044;-65
2023/02/11 14:19:10;;;;;;;3.35;0.95;;;;;;;;;;6146133;23;20025;-65
2023/02/11 14:21:46;;;;;;;4.60;1.10;;;;;;;;;;6147444;23;20549;-63
2023/02/11 14:24:19;;;;;;;2.75;0.80;;;;;;;;;;6148527;23;20128;-60
2023/02/11 14:26:50;;;;;;;2.25;0.98;;;;;;;;;;6147864;23;20116;-62
2023/02/11 14:29:38;;;;;;;3.10;1.00;;;;;;;;;;6145366;23;20025;-62
2023/02/11 14:32:17;;;;;;;1.95;0.80;;;;;;;;;;6122401;23;20092;-62
2023/02/11 14:34:56;;;;;;;1.73;1.00;;;;;;;;;;6145638;23;20032;-62
2023/02/11 14:37:37;;;;;;;2.47;1.20;;;;;;;;;;6144443;23;20032;-61
2023/02/11 14:40:18;;;;;;;3.13;1.45;;;;;;;;;;6146328;23;20390;-61
2023/02/11 14:42:46;;;;;;;2.55;1.23;;;;;;;;;;6146981;23;20029;-61
2023/02/11 14:45:23;;;;;;;3.03;1.25;;;;;;;;;;6147387;23;20089;-60
2023/02/11 14:47:53;;;;;;;2.28;0.80;;;;;;;;;;6148323;23;20029;-59
2023/02/11 14:50:31;;;;;;;2.97;0.90;;;;;;;;;;6148159;23;20064;-60
2023/02/11 14:53:00;;;;;;;3.05;0.90;;;;;;;;;;6146745;23;20790;-59
2023/02/11 14:55:36;;;;;;;2.38;1.02;;;;;;;;;;6148022;23;20028;-60
2023/02/11 14:58:08;;;;;;;2.65;0.80;;;;;;;;;;6147013;23;20076;-60
2023/02/11 15:00:55;;;;;;;1.67;0.95;;;;;;;;;;6147082;23;20037;-56
2023/02/11 15:03:39;;;;;;;4.85;1.10;;;;;;;;;;6147645;23;20060;-59
2023/02/11 15:06:18;;;;;;;2.05;1.00;;;;;;;;;;6147968;23;20403;-60
2023/02/11 15:08:50;;;;;;;3.47;1.30;;;;;;;;;;6145135;23;20080;-60
2023/02/11 15:11:25;;;;;;;1.10;0.80;;;;;;;;;;6147461;23;20104;-59
2023/02/11 15:13:52;;;;;;;1.80;0.75;;;;;;;;;;6120518;23;20021;-60
2023/02/11 15:16:28;;;;;;;3.45;1.05;;;;;;;;;;6147245;23;20071;-60
2023/02/11 15:19:00;;;;;;;2.10;1.05;;;;;;;;;;6146623;23;20137;-61
2023/02/11 15:21:41;;;;;;;1.00;0.82;;;;;;;;;;6145566;23;20049;-62
2023/02/11 15:24:22;;;;;;;2.45;1.23;;;;;;;;;;6141458;23;20026;-59
2023/02/11 15:27:01;;;;;;;1.60;1.10;;;;;;;;;;6145064;23;20030;-57
2023/02/11 15:29:36;;;;;;;1.98;0.90;;;;;;;;;;6142318;23;20029;-56
2023/02/11 15:32:10;;;;;;;1.85;1.20;;;;;;;;;;6145819;23;20030;-58
2023/02/11 15:34:38;;;;;;;2.55;1.17;;;;;;;;;;6144794;23;20029;-58
2023/02/11 15:37:05;;;;;;;2.22;1.05;;;;;;;;;;6146299;23;20029;-57
2023/02/11 15:39:41;;;;;;;3.88;1.35;;;;;;;;;;6143891;23;20470;-63